sensor_id;sensor_type;location;lat;lon;timestamp;pressure;altitude;pressure_sealevel;temperature;humidity
54038;BME280;39954;48.844;9.726;2023-12-14T00:00:54;95060.78;;;2.60;100.00
54038;BME280;39954;48.844;9.726;2023-12-14T00:01:59;95070.34;;;2.57;100.00
54038;BME280;39954;48.844;9.726;2023-12-14T00:03:01;95059.13;;;2.59;100.00
54038;BME280;39954;48.844;9.726;2023-12-14T00:04:08;95065.22;;;2.57;100.00
54038;BME280;39954;48.844;9.726;2023-12-14T00:05:10;95069.47;;;2.58;100.00
54038;BME280;39954;48.844;9.726;2023-12-14T00:06:15;95071.25;;;2.56;100.00
54038;BME280;39954;48.844;9.726;2023-12-14T00:07:17;95070.28;;;2.58;100.00
54038;BME280;39954;48.844;9.726;2023-12-14T00:08:22;95069.38;;;2.59;100.00
54038;BME280;39954;48.844;9.726;2023-12-14T00:09:28;95064.00;;;2.65;100.00
54038;BME280;39954;48.844;9.726;2023-12-14T00:10:33;95070.16;;;2.61;100.00
54038;BME280;39954;48.844;9.726;2023-12-14T00:11:37;95069.38;;;2.59;100.00
54038;BME280;39954;48.844;9.726;2023-12-14T00:12:43;95071.03;;;2.60;100.00
54038;BME280;39954;48.844;9.726;2023-12-14T00:13:46;95077.06;;;2.59;100.00
54038;BME280;39954;48.844;9.726;2023-12-14T00:14:51;95071.91;;;2.61;100.00
54038;BME280;39954;48.844;9.726;2023-12-14T00:15:54;95077.16;;;2.58;100.00
54038;BME280;39954;48.844;9.726;2023-12-14T00:16:59;95071.91;;;2.61;100.00
54038;BME280;39954;48.844;9.726;2023-12-14T00:18:01;95075.47;;;2.57;100.00
54038;BME280;39954;48.844;9.726;2023-12-14T00:19:07;95071.16;;;2.57;100.00
54038;BME280;39954;48.844;9.726;2023-12-14T00:20:10;95077.16;;;2.58;100.00
54038;BME280;39954;48.844;9.726;2023-12-14T00:21:16;95077.97;;;2.58;100.00
54038;BME280;39954;48.844;9.726;2023-12-14T00:22:18;95081.38;;;2.59;100.00
54038;BME280;39954;48.844;9.726;2023-12-14T00:23:23;95088.25;;;2.58;100.00
54038;BME280;39954;48.844;9.726;2023-12-14T00:24:28;95076.38;;;2.56;100.00
54038;BME280;39954;48.844;9.726;2023-12-14T00:25:33;95084.06;;;2.56;100.00
54038;BME280;39954;48.844;9.726;2023-12-14T00:26:35;95090.84;;;2.57;100.00
54038;BME280;39954;48.844;9.726;2023-12-14T00:27:40;95095.94;;;2.58;100.00
54038;BME280;39954;48.844;9.726;2023-12-14T00:28:42;95092.28;;;2.64;100.00
54038;BME280;39954;48.844;9.726;2023-12-14T00:29:47;95094.59;;;2.70;100.00
54038;BME280;39954;48.844;9.726;2023-12-14T00:30:49;95096.38;;;2.68;100.00
54038;BME280;39954;48.844;9.726;2023-12-14T00:31:54;95097.28;;;2.67;100.00
54038;BME280;39954;48.844;9.726;2023-12-14T00:32:57;95098.94;;;2.68;100.00
54038;BME280;39954;48.844;9.726;2023-12-14T00:34:02;95099.19;;;2.62;100.00
54038;BME280;39954;48.844;9.726;2023-12-14T00:35:05;95100.16;;;2.59;100.00
54038;BME280;39954;48.844;9.726;2023-12-14T00:36:17;95101.94;;;2.57;100.00
54038;BME280;39954;48.844;9.726;2023-12-14T00:37:20;95099.47;;;2.56;100.00
54038;BME280;39954;48.844;9.726;2023-12-14T00:38:24;95104.50;;;2.57;100.00
54038;BME280;39954;48.844;9.726;2023-12-14T00:39:30;95104.59;;;2.56;100.00
54038;BME280;39954;48.844;9.726;2023-12-14T00:40:34;95105.28;;;2.59;100.00
54038;BME280;39954;48.844;9.726;2023-12-14T00:41:37;95102.81;;;2.58;100.00
54038;BME280;39954;48.844;9.726;2023-12-14T00:42:42;95099.38;;;2.57;100.00
54038;BME280;39954;48.844;9.726;2023-12-14T00:43:44;95112.16;;;2.59;100.00
54038;BME280;39954;48.844;9.726;2023-12-14T00:44:49;95105.28;;;2.59;100.00
54038;BME280;39954;48.844;9.726;2023-12-14T00:45:52;95117.34;;;2.57;100.00
54038;BME280;39954;48.844;9.726;2023-12-14T00:46:57;95109.59;;;2.59;100.00
54038;BME280;39954;48.844;9.726;2023-12-14T00:48:00;95115.63;;;2.58;100.00
54038;BME280;39954;48.844;9.726;2023-12-14T00:49:02;95114.78;;;2.57;100.00
54038;BME280;39954;48.844;9.726;2023-12-14T00:50:08;95116.50;;;2.57;100.00
54038;BME280;39954;48.844;9.726;2023-12-14T00:51:10;95118.19;;;2.58;100.00
54038;BME280;39954;48.844;9.726;2023-12-14T00:52:15;95111.38;;;2.57;100.00
54038;BME280;39954;48.844;9.726;2023-12-14T00:53:18;95119.03;;;2.58;100.00
54038;BME280;39954;48.844;9.726;2023-12-14T00:54:20;95117.28;;;2.59;100.00
54038;BME280;39954;48.844;9.726;2023-12-14T00:55:27;95113.81;;;2.60;100.00
54038;BME280;39954;48.844;9.726;2023-12-14T00:56:30;95116.38;;;2.60;100.00
54038;BME280;39954;48.844;9.726;2023-12-14T00:57:32;95117.28;;;2.59;100.00
54038;BME280;39954;48.844;9.726;2023-12-14T00:58:37;95128.91;;;2.67;100.00
54038;BME280;39954;48.844;9.726;2023-12-14T00:59:39;95123.06;;;2.64;100.00
54038;BME280;39954;48.844;9.726;2023-12-14T01:00:44;95128.31;;;2.61;100.00
54038;BME280;39954;48.844;9.726;2023-12-14T01:01:46;95133.59;;;2.58;100.00
54038;BME280;39954;48.844;9.726;2023-12-14T01:02:49;95131.78;;;2.60;100.00
54038;BME280;39954;48.844;9.726;2023-12-14T01:03:54;95136.06;;;2.59;100.00
54038;BME280;39954;48.844;9.726;2023-12-14T01:04:56;95133.38;;;2.62;100.00
54038;BME280;39954;48.844;9.726;2023-12-14T01:06:04;95137.69;;;2.62;100.00
54038;BME280;39954;48.844;9.726;2023-12-14T01:07:06;95135.94;;;2.62;100.00
54038;BME280;39954;48.844;9.726;2023-12-14T01:08:11;95139.22;;;2.66;100.00
54038;BME280;39954;48.844;9.726;2023-12-14T01:09:13;95148.50;;;2.68;100.00
54038;BME280;39954;48.844;9.726;2023-12-14T01:10:18;95146.81;;;2.69;100.00
54038;BME280;39954;48.844;9.726;2023-12-14T01:11:23;95139.28;;;2.64;100.00
54038;BME280;39954;48.844;9.726;2023-12-14T01:12:28;95141.03;;;2.64;100.00
54038;BME280;39954;48.844;9.726;2023-12-14T01:13:30;95144.34;;;2.66;100.00
54038;BME280;39954;48.844;9.726;2023-12-14T01:14:35;95145.94;;;2.68;100.00
54038;BME280;39954;48.844;9.726;2023-12-14T01:15:37;95152.78;;;2.69;100.00
54038;BME280;39954;48.844;9.726;2023-12-14T01:16:42;95159.38;;;2.75;100.00
54038;BME280;39954;48.844;9.726;2023-12-14T01:17:44;95150.00;;;2.74;100.00
54038;BME280;39954;48.844;9.726;2023-12-14T01:18:49;95163.78;;;2.72;100.00
54038;BME280;39954;48.844;9.726;2023-12-14T01:19:52;95152.78;;;2.69;100.00
54038;BME280;39954;48.844;9.726;2023-12-14T01:20:57;95158.84;;;2.67;100.00
54038;BME280;39954;48.844;9.726;2023-12-14T01:21:59;95160.50;;;2.68;100.00
54038;BME280;39954;48.844;9.726;2023-12-14T01:23:04;95167.34;;;2.69;100.00
54038;BME280;39954;48.844;9.726;2023-12-14T01:24:06;95161.34;;;2.68;100.00
54038;BME280;39954;48.844;9.726;2023-12-14T01:25:09;95168.22;;;2.68;100.00
54038;BME280;39954;48.844;9.726;2023-12-14T01:26:14;95169.13;;;2.67;100.00
54038;BME280;39954;48.844;9.726;2023-12-14T01:27:19;95167.34;;;2.69;100.00
54038;BME280;39954;48.844;9.726;2023-12-14T01:28:25;95178.56;;;2.66;100.00
54038;BME280;39954;48.844;9.726;2023-12-14T01:29:27;95170.00;;;2.66;100.00
54038;BME280;39954;48.844;9.726;2023-12-14T01:30:32;95172.56;;;2.66;100.00
54038;BME280;39954;48.844;9.726;2023-12-14T01:31:34;95179.56;;;2.62;100.00
54038;BME280;39954;48.844;9.726;2023-12-14T01:32:39;95177.00;;;2.62;100.00
54038;BME280;39954;48.844;9.726;2023-12-14T01:33:42;95173.56;;;2.63;100.00
54038;BME280;39954;48.844;9.726;2023-12-14T01:34:48;95182.72;;;2.69;100.00
54038;BME280;39954;48.844;9.726;2023-12-14T01:35:50;95176.03;;;2.65;100.00
54038;BME280;39954;48.844;9.726;2023-12-14T01:36:55;95182.19;;;2.61;100.00
54038;BME280;39954;48.844;9.726;2023-12-14T01:37:57;95178.03;;;2.58;100.00
54038;BME280;39954;48.844;9.726;2023-12-14T01:39:02;95187.31;;;2.61;100.00
54038;BME280;39954;48.844;9.726;2023-12-14T01:40:06;95180.50;;;2.60;100.00
54038;BME280;39954;48.844;9.726;2023-12-14T01:41:08;95181.41;;;2.59;100.00
54038;BME280;39954;48.844;9.726;2023-12-14T01:42:13;95183.16;;;2.58;100.00
54038;BME280;39954;48.844;9.726;2023-12-14T01:43:18;95185.75;;;2.57;100.00
54038;BME280;39954;48.844;9.726;2023-12-14T01:44:23;95191.69;;;2.59;100.00
54038;BME280;39954;48.844;9.726;2023-12-14T01:45:25;95191.44;;;2.65;100.00
54038;BME280;39954;48.844;9.726;2023-12-14T01:46:30;95193.09;;;2.66;100.00
54038;BME280;39954;48.844;9.726;2023-12-14T01:47:33;95195.78;;;2.63;100.00
54038;BME280;39954;48.844;9.726;2023-12-14T01:48:38;95194.13;;;2.62;100.00
54038;BME280;39954;48.844;9.726;2023-12-14T01:49:40;95201.81;;;2.62;100.00
54038;BME280;39954;48.844;9.726;2023-12-14T01:50:45;95199.25;;;2.62;100.00
54038;BME280;39954;48.844;9.726;2023-12-14T01:51:47;95201.03;;;2.60;100.00
54038;BME280;39954;48.844;9.726;2023-12-14T01:52:52;95204.44;;;2.60;100.00
54038;BME280;39954;48.844;9.726;2023-12-14T01:53:55;95195.84;;;2.61;100.00
54038;BME280;39954;48.844;9.726;2023-12-14T01:55:00;95205.34;;;2.59;100.00
54038;BME280;39954;48.844;9.726;2023-12-14T01:56:05;95207.06;;;2.59;100.00
54038;BME280;39954;48.844;9.726;2023-12-14T01:57:10;95212.06;;;2.62;100.00
54038;BME280;39954;48.844;9.726;2023-12-14T01:58:13;95212.97;;;2.61;100.00
54038;BME280;39954;48.844;9.726;2023-12-14T01:59:20;95212.84;;;2.64;100.00
54038;BME280;39954;48.844;9.726;2023-12-14T02:00:28;95216.16;;;2.66;100.00
54038;BME280;39954;48.844;9.726;2023-12-14T02:01:39;95212.91;;;2.62;100.00
54038;BME280;39954;48.844;9.726;2023-12-14T02:02:46;95218.75;;;2.66;100.00
54038;BME280;39954;48.844;9.726;2023-12-14T02:03:50;95217.16;;;2.63;100.00
54038;BME280;39954;48.844;9.726;2023-12-14T02:04:56;95222.34;;;2.62;100.00
54038;BME280;39954;48.844;9.726;2023-12-14T02:05:58;95223.13;;;2.64;100.00
54038;BME280;39954;48.844;9.726;2023-12-14T02:07:03;95221.44;;;2.63;100.00
54038;BME280;39954;48.844;9.726;2023-12-14T02:08:06;95218.88;;;2.63;100.00
54038;BME280;39954;48.844;9.726;2023-12-14T02:09:12;95218.00;;;2.64;100.00
54038;BME280;39954;48.844;9.726;2023-12-14T02:10:14;95217.91;;;2.65;100.00
54038;BME280;39954;48.844;9.726;2023-12-14T02:11:16;95221.31;;;2.66;100.00
54038;BME280;39954;48.844;9.726;2023-12-14T02:12:21;95222.22;;;2.65;100.00
54038;BME280;39954;48.844;9.726;2023-12-14T02:13:24;95222.22;;;2.65;100.00
54038;BME280;39954;48.844;9.726;2023-12-14T02:14:32;95223.88;;;2.66;100.00
54038;BME280;39954;48.844;9.726;2023-12-14T02:15:34;95218.03;;;2.62;100.00
54038;BME280;39954;48.844;9.726;2023-12-14T02:16:39;95222.34;;;2.62;100.00
54038;BME280;39954;48.844;9.726;2023-12-14T02:17:41;95221.44;;;2.63;100.00
54038;BME280;39954;48.844;9.726;2023-12-14T02:18:46;95221.50;;;2.61;100.00
54038;BME280;39954;48.844;9.726;2023-12-14T02:19:48;95227.47;;;2.62;100.00
54038;BME280;39954;48.844;9.726;2023-12-14T02:20:53;95228.28;;;2.62;100.00
54038;BME280;39954;48.844;9.726;2023-12-14T02:21:56;95224.00;;;2.63;100.00
54038;BME280;39954;48.844;9.726;2023-12-14T02:23:03;95221.50;;;2.61;100.00
54038;BME280;39954;48.844;9.726;2023-12-14T02:24:05;95226.50;;;2.64;100.00
54038;BME280;39954;48.844;9.726;2023-12-14T02:25:10;95227.34;;;2.65;100.00
54038;BME280;39954;48.844;9.726;2023-12-14T02:26:13;95230.84;;;2.62;100.00
54038;BME280;39954;48.844;9.726;2023-12-14T02:27:18;95233.31;;;2.65;100.00
54038;BME280;39954;48.844;9.726;2023-12-14T02:28:20;95232.34;;;2.68;100.00
54038;BME280;39954;48.844;9.726;2023-12-14T02:29:25;95228.25;;;2.64;100.00
54038;BME280;39954;48.844;9.726;2023-12-14T02:30:28;95232.47;;;2.65;100.00
54038;BME280;39954;48.844;9.726;2023-12-14T02:31:33;95240.13;;;2.66;100.00
54038;BME280;39954;48.844;9.726;2023-12-14T02:32:35;95237.47;;;2.68;100.00
54038;BME280;39954;48.844;9.726;2023-12-14T02:33:38;95235.56;;;2.73;100.00
54038;BME280;39954;48.844;9.726;2023-12-14T02:34:44;95242.44;;;2.73;100.00
54038;BME280;39954;48.844;9.726;2023-12-14T02:35:48;95239.16;;;2.69;100.00
54038;BME280;39954;48.844;9.726;2023-12-14T02:36:53;95243.41;;;2.70;100.00
54038;BME280;39954;48.844;9.726;2023-12-14T02:37:55;95249.31;;;2.72;100.00
54038;BME280;39954;48.844;9.726;2023-12-14T02:39:02;95249.31;;;2.72;100.00
54038;BME280;39954;48.844;9.726;2023-12-14T02:40:07;95250.91;;;2.75;100.00
54038;BME280;39954;48.844;9.726;2023-12-14T02:41:12;95249.19;;;2.75;100.00
54038;BME280;39954;48.844;9.726;2023-12-14T02:42:15;95250.00;;;2.76;100.00
54038;BME280;39954;48.844;9.726;2023-12-14T02:43:17;95248.22;;;2.78;100.00
54038;BME280;39954;48.844;9.726;2023-12-14T02:44:22;95251.38;;;2.84;100.00
54038;BME280;39954;48.844;9.726;2023-12-14T02:45:24;95255.69;;;2.84;100.00
54038;BME280;39954;48.844;9.726;2023-12-14T02:46:29;95255.59;;;2.85;100.00
54038;BME280;39954;48.844;9.726;2023-12-14T02:47:31;95267.44;;;2.89;100.00
54038;BME280;39954;48.844;9.726;2023-12-14T02:48:33;95262.44;;;2.86;100.00
54038;BME280;39954;48.844;9.726;2023-12-14T02:49:39;95259.84;;;2.86;100.00
54038;BME280;39954;48.844;9.726;2023-12-14T02:50:41;95264.09;;;2.87;100.00
54038;BME280;39954;48.844;9.726;2023-12-14T02:51:43;95268.31;;;2.88;100.00
54038;BME280;39954;48.844;9.726;2023-12-14T02:52:48;95264.88;;;2.89;100.00
54038;BME280;39954;48.844;9.726;2023-12-14T02:53:51;95267.31;;;2.92;100.00
54038;BME280;39954;48.844;9.726;2023-12-14T02:55:01;95269.81;;;2.94;100.00
54038;BME280;39954;48.844;9.726;2023-12-14T02:56:06;95267.19;;;2.96;100.00
54038;BME280;39954;48.844;9.726;2023-12-14T02:57:12;95270.53;;;2.98;100.00
54038;BME280;39954;48.844;9.726;2023-12-14T02:58:14;95263.50;;;3.03;100.00
54038;BME280;39954;48.844;9.726;2023-12-14T02:59:20;95272.91;;;3.02;100.00
54038;BME280;39954;48.844;9.726;2023-12-14T03:00:22;95264.44;;;3.00;100.00
54038;BME280;39954;48.844;9.726;2023-12-14T03:01:27;95261.78;;;3.02;100.00
54038;BME280;39954;48.844;9.726;2023-12-14T03:02:29;95277.06;;;3.05;100.00
54038;BME280;39954;48.844;9.726;2023-12-14T03:03:38;95276.38;;;3.01;100.00
54038;BME280;39954;48.844;9.726;2023-12-14T03:04:42;95278.22;;;2.98;100.00
54038;BME280;39954;48.844;9.726;2023-12-14T03:05:47;95269.75;;;2.96;100.00
54038;BME280;39954;48.844;9.726;2023-12-14T03:06:51;95280.00;;;2.96;100.00
54038;BME280;39954;48.844;9.726;2023-12-14T03:07:57;95273.97;;;2.97;100.00
54038;BME280;39954;48.844;9.726;2023-12-14T03:09:00;95277.44;;;2.96;100.00
54038;BME280;39954;48.844;9.726;2023-12-14T03:10:08;95273.28;;;2.93;100.00
54038;BME280;39954;48.844;9.726;2023-12-14T03:11:20;95278.41;;;2.93;100.00
54038;BME280;39954;48.844;9.726;2023-12-14T03:12:26;95280.09;;;2.94;100.00
54038;BME280;39954;48.844;9.726;2023-12-14T03:13:28;95277.56;;;2.92;100.00
54038;BME280;39954;48.844;9.726;2023-12-14T03:14:33;95282.72;;;2.92;100.00
54038;BME280;39954;48.844;9.726;2023-12-14T03:15:35;95281.03;;;2.91;100.00
54038;BME280;39954;48.844;9.726;2023-12-14T03:16:40;95284.38;;;2.94;100.00
54038;BME280;39954;48.844;9.726;2023-12-14T03:17:43;95281.75;;;2.95;100.00
54038;BME280;39954;48.844;9.726;2023-12-14T03:18:47;95286.06;;;2.95;100.00
54038;BME280;39954;48.844;9.726;2023-12-14T03:19:54;95288.63;;;2.95;100.00
54038;BME280;39954;48.844;9.726;2023-12-14T03:21:01;95282.59;;;2.96;100.00
54038;BME280;39954;48.844;9.726;2023-12-14T03:22:03;95282.59;;;2.96;100.00
54038;BME280;39954;48.844;9.726;2023-12-14T03:23:08;95287.72;;;2.96;100.00
54038;BME280;39954;48.844;9.726;2023-12-14T03:24:10;95290.34;;;2.94;100.00
54038;BME280;39954;48.844;9.726;2023-12-14T03:25:20;95286.19;;;2.91;100.00
54038;BME280;39954;48.844;9.726;2023-12-14T03:26:23;95293.81;;;2.93;100.00
54038;BME280;39954;48.844;9.726;2023-12-14T03:27:28;95296.38;;;2.93;100.00
54038;BME280;39954;48.844;9.726;2023-12-14T03:28:30;95293.50;;;3.01;100.00
54038;BME280;39954;48.844;9.726;2023-12-14T03:29:35;95295.03;;;3.05;100.00
54038;BME280;39954;48.844;9.726;2023-12-14T03:30:38;95302.03;;;3.01;100.00
54038;BME280;39954;48.844;9.726;2023-12-14T03:31:43;95298.88;;;2.95;100.00
54038;BME280;39954;48.844;9.726;2023-12-14T03:32:45;95305.03;;;2.90;100.00
54038;BME280;39954;48.844;9.726;2023-12-14T03:33:50;95307.66;;;2.89;100.00
54038;BME280;39954;48.844;9.726;2023-12-14T03:34:52;95306.81;;;2.88;100.00
54038;BME280;39954;48.844;9.726;2023-12-14T03:35:57;95305.16;;;2.87;100.00
54038;BME280;39954;48.844;9.726;2023-12-14T03:37:00;95306.09;;;2.85;100.00
54038;BME280;39954;48.844;9.726;2023-12-14T03:38:04;95316.19;;;2.89;100.00
54038;BME280;39954;48.844;9.726;2023-12-14T03:39:07;95314.59;;;2.87;100.00
54038;BME280;39954;48.844;9.726;2023-12-14T03:40:12;95317.19;;;2.85;100.00
54038;BME280;39954;48.844;9.726;2023-12-14T03:41:17;95317.31;;;2.82;100.00
54038;BME280;39954;48.844;9.726;2023-12-14T03:42:22;95317.31;;;2.82;100.00
54038;BME280;39954;48.844;9.726;2023-12-14T03:43:24;95320.66;;;2.84;100.00
54038;BME280;39954;48.844;9.726;2023-12-14T03:44:29;95322.31;;;2.85;100.00
54038;BME280;39954;48.844;9.726;2023-12-14T03:45:31;95324.13;;;2.83;100.00
54038;BME280;39954;48.844;9.726;2023-12-14T03:46:38;95325.97;;;2.80;100.00
54038;BME280;39954;48.844;9.726;2023-12-14T03:47:40;95325.91;;;2.81;100.00
54038;BME280;39954;48.844;9.726;2023-12-14T03:48:45;95327.69;;;2.79;100.00
54038;BME280;39954;48.844;9.726;2023-12-14T03:49:47;95336.31;;;2.78;100.00
54038;BME280;39954;48.844;9.726;2023-12-14T03:50:53;95331.97;;;2.80;100.00
54038;BME280;39954;48.844;9.726;2023-12-14T03:51:55;95335.41;;;2.79;100.00
54038;BME280;39954;48.844;9.726;2023-12-14T03:53:00;95338.03;;;2.78;100.00
54038;BME280;39954;48.844;9.726;2023-12-14T03:54:02;95336.31;;;2.78;100.00
54038;BME280;39954;48.844;9.726;2023-12-14T03:55:08;95338.91;;;2.77;100.00
54038;BME280;39954;48.844;9.726;2023-12-14T03:56:10;95340.53;;;2.79;100.00
54038;BME280;39954;48.844;9.726;2023-12-14T03:57:18;95343.22;;;2.76;100.00
54038;BME280;39954;48.844;9.726;2023-12-14T03:58:21;95340.66;;;2.76;100.00
54038;BME280;39954;48.844;9.726;2023-12-14T03:59:25;95346.69;;;2.75;100.00
54038;BME280;39954;48.844;9.726;2023-12-14T04:00:28;95345.00;;;2.74;100.00
54038;BME280;39954;48.844;9.726;2023-12-14T04:01:32;95352.66;;;2.76;100.00
54038;BME280;39954;48.844;9.726;2023-12-14T04:02:35;95356.84;;;2.78;100.00
54038;BME280;39954;48.844;9.726;2023-12-14T04:03:40;95361.97;;;2.78;100.00
54038;BME280;39954;48.844;9.726;2023-12-14T04:04:43;95365.31;;;2.80;100.00
54038;BME280;39954;48.844;9.726;2023-12-14T04:05:49;95360.22;;;2.79;100.00
54038;BME280;39954;48.844;9.726;2023-12-14T04:06:52;95358.63;;;2.76;100.00
54038;BME280;39954;48.844;9.726;2023-12-14T04:07:57;95362.00;;;2.77;100.00
54038;BME280;39954;48.844;9.726;2023-12-14T04:08:59;95363.75;;;2.76;100.00
54038;BME280;39954;48.844;9.726;2023-12-14T04:10:05;95374.00;;;2.76;100.00
54038;BME280;39954;48.844;9.726;2023-12-14T04:11:08;95373.19;;;2.76;100.00
54038;BME280;39954;48.844;9.726;2023-12-14T04:12:13;95374.13;;;2.73;100.00
54038;BME280;39954;48.844;9.726;2023-12-14T04:13:18;95380.03;;;2.75;100.00
54038;BME280;39954;48.844;9.726;2023-12-14T04:14:22;95378.34;;;2.74;100.00
54038;BME280;39954;48.844;9.726;2023-12-14T04:15:25;95380.88;;;2.76;100.00
54038;BME280;39954;48.844;9.726;2023-12-14T04:16:30;95386.78;;;2.78;100.00
54038;BME280;39954;48.844;9.726;2023-12-14T04:17:32;95384.94;;;2.81;100.00
54038;BME280;39954;48.844;9.726;2023-12-14T04:18:38;95385.94;;;2.77;100.00
54038;BME280;39954;48.844;9.726;2023-12-14T04:19:41;95386.72;;;2.79;100.00
54038;BME280;39954;48.844;9.726;2023-12-14T04:20:46;95389.28;;;2.79;100.00
54038;BME280;39954;48.844;9.726;2023-12-14T04:21:49;95391.84;;;2.79;100.00
54038;BME280;39954;48.844;9.726;2023-12-14T04:22:55;95390.13;;;2.80;100.00
54038;BME280;39954;48.844;9.726;2023-12-14T04:23:57;95391.84;;;2.79;100.00
54038;BME280;39954;48.844;9.726;2023-12-14T04:25:01;95391.94;;;2.78;100.00
54038;BME280;39954;48.844;9.726;2023-12-14T04:26:06;95388.47;;;2.79;100.00
54038;BME280;39954;48.844;9.726;2023-12-14T04:27:10;95389.25;;;2.81;100.00
54038;BME280;39954;48.844;9.726;2023-12-14T04:28:12;95394.41;;;2.79;100.00
54038;BME280;39954;48.844;9.726;2023-12-14T04:29:20;95396.13;;;2.80;100.00
54038;BME280;39954;48.844;9.726;2023-12-14T04:30:22;95395.19;;;2.81;100.00
54038;BME280;39954;48.844;9.726;2023-12-14T04:31:27;95398.59;;;2.82;100.00
54038;BME280;39954;48.844;9.726;2023-12-14T04:32:30;95398.47;;;2.85;100.00
54038;BME280;39954;48.844;9.726;2023-12-14T04:33:35;95398.47;;;2.85;100.00
54038;BME280;39954;48.844;9.726;2023-12-14T04:34:37;95398.59;;;2.82;100.00
54038;BME280;39954;48.844;9.726;2023-12-14T04:35:42;95398.56;;;2.83;100.00
54038;BME280;39954;48.844;9.726;2023-12-14T04:36:48;95404.56;;;2.82;100.00
54038;BME280;39954;48.844;9.726;2023-12-14T04:37:54;95406.31;;;2.82;100.00
54038;BME280;39954;48.844;9.726;2023-12-14T04:38:57;95408.03;;;2.81;100.00
54038;BME280;39954;48.844;9.726;2023-12-14T04:40:03;95405.47;;;2.81;100.00
54038;BME280;39954;48.844;9.726;2023-12-14T04:41:06;95405.47;;;2.81;100.00
54038;BME280;39954;48.844;9.726;2023-12-14T04:42:11;95404.56;;;2.82;100.00
54038;BME280;39954;48.844;9.726;2023-12-14T04:43:13;95409.69;;;2.82;100.00
54038;BME280;39954;48.844;9.726;2023-12-14T04:44:21;95413.88;;;2.85;100.00
54038;BME280;39954;48.844;9.726;2023-12-14T04:45:23;95413.00;;;2.86;100.00
54038;BME280;39954;48.844;9.726;2023-12-14T04:46:28;95419.91;;;2.84;100.00
54038;BME280;39954;48.844;9.726;2023-12-14T04:47:30;95417.28;;;2.85;100.00
54038;BME280;39954;48.844;9.726;2023-12-14T04:48:36;95423.31;;;2.84;100.00
54038;BME280;39954;48.844;9.726;2023-12-14T04:49:38;95417.34;;;2.84;100.00
54038;BME280;39954;48.844;9.726;2023-12-14T04:50:43;95428.44;;;2.84;100.00
54038;BME280;39954;48.844;9.726;2023-12-14T04:51:46;95426.66;;;2.86;100.00
54038;BME280;39954;48.844;9.726;2023-12-14T04:52:50;95424.16;;;2.85;100.00
54038;BME280;39954;48.844;9.726;2023-12-14T04:53:53;95422.53;;;2.82;100.00
54038;BME280;39954;48.844;9.726;2023-12-14T04:54:58;95419.97;;;2.82;100.00
54038;BME280;39954;48.844;9.726;2023-12-14T04:56:00;95430.00;;;2.88;100.00
54038;BME280;39954;48.844;9.726;2023-12-14T04:57:05;95425.84;;;2.86;100.00
54038;BME280;39954;48.844;9.726;2023-12-14T04:58:08;95427.63;;;2.84;100.00
54038;BME280;39954;48.844;9.726;2023-12-14T04:59:13;95432.69;;;2.85;100.00
54038;BME280;39954;48.844;9.726;2023-12-14T05:00:18;95429.28;;;2.85;100.00
54038;BME280;39954;48.844;9.726;2023-12-14T05:01:24;95430.09;;;2.85;100.00
54038;BME280;39954;48.844;9.726;2023-12-14T05:02:31;95442.19;;;2.83;100.00
54038;BME280;39954;48.844;9.726;2023-12-14T05:03:34;95439.63;;;2.83;100.00
54038;BME280;39954;48.844;9.726;2023-12-14T05:04:40;95443.72;;;2.87;100.00
54038;BME280;39954;48.844;9.726;2023-12-14T05:05:42;95443.81;;;2.86;100.00
54038;BME280;39954;48.844;9.726;2023-12-14T05:06:47;95442.94;;;2.85;100.00
54038;BME280;39954;48.844;9.726;2023-12-14T05:07:50;95446.19;;;2.90;100.00
54038;BME280;39954;48.844;9.726;2023-12-14T05:08:55;95437.69;;;2.88;100.00
54038;BME280;39954;48.844;9.726;2023-12-14T05:09:57;95448.88;;;2.87;100.00
54038;BME280;39954;48.844;9.726;2023-12-14T05:10:59;95445.47;;;2.87;100.00
54038;BME280;39954;48.844;9.726;2023-12-14T05:12:05;95448.06;;;2.85;100.00
54038;BME280;39954;48.844;9.726;2023-12-14T05:13:07;95447.19;;;2.86;100.00
54038;BME280;39954;48.844;9.726;2023-12-14T05:14:12;95446.41;;;2.84;100.00
54038;BME280;39954;48.844;9.726;2023-12-14T05:15:18;95448.16;;;2.84;100.00
54038;BME280;39954;48.844;9.726;2023-12-14T05:16:23;95453.28;;;2.84;100.00
54038;BME280;39954;48.844;9.726;2023-12-14T05:17:28;95450.63;;;2.85;100.00
54038;BME280;39954;48.844;9.726;2023-12-14T05:18:33;95448.97;;;2.84;100.00
54038;BME280;39954;48.844;9.726;2023-12-14T05:19:36;95448.03;;;2.87;100.00
54038;BME280;39954;48.844;9.726;2023-12-14T05:20:41;95449.66;;;2.89;100.00
54038;BME280;39954;48.844;9.726;2023-12-14T05:21:43;95457.34;;;2.89;100.00
54038;BME280;39954;48.844;9.726;2023-12-14T05:22:48;95451.44;;;2.87;100.00
54038;BME280;39954;48.844;9.726;2023-12-14T05:23:51;95455.50;;;2.93;100.00
54038;BME280;39954;48.844;9.726;2023-12-14T05:24:56;95453.09;;;2.88;100.00
54038;BME280;39954;48.844;9.726;2023-12-14T05:25:58;95458.97;;;2.92;100.00
54038;BME280;39954;48.844;9.726;2023-12-14T05:27:06;95460.59;;;2.95;100.00
54038;BME280;39954;48.844;9.726;2023-12-14T05:28:08;95457.34;;;2.89;100.00
54038;BME280;39954;48.844;9.726;2023-12-14T05:29:14;95468.56;;;2.87;100.00
54038;BME280;39954;48.844;9.726;2023-12-14T05:30:21;95466.03;;;2.85;100.00
54038;BME280;39954;48.844;9.726;2023-12-14T05:31:26;95474.53;;;2.87;100.00
54038;BME280;39954;48.844;9.726;2023-12-14T05:32:28;95477.06;;;2.89;100.00
54038;BME280;39954;48.844;9.726;2023-12-14T05:33:36;95473.63;;;2.88;100.00
54038;BME280;39954;48.844;9.726;2023-12-14T05:34:38;95478.75;;;2.88;100.00
54038;BME280;39954;48.844;9.726;2023-12-14T05:35:43;95480.50;;;2.88;100.00
54038;BME280;39954;48.844;9.726;2023-12-14T05:36:46;95477.88;;;2.89;100.00
54038;BME280;39954;48.844;9.726;2023-12-14T05:37:48;95490.66;;;2.91;100.00
54038;BME280;39954;48.844;9.726;2023-12-14T05:38:53;95488.16;;;2.89;100.00
54038;BME280;39954;48.844;9.726;2023-12-14T05:39:56;95496.63;;;2.91;100.00